Time;durP1;ratioP1;P1;durP2;ratioP2;P2;SDS_P1;SDS_P2;PMS_P1;PMS_P2;Temp;Humidity;BMP_temperature;BMP_pressure;BME280_temperature;BME280_humidity;BME280_pressure;Samples;Min_cycle;Max_cycle;Signal;HPM_P1;HPM_P2
2020/12/11 00:00:07;;;;;;;5.40;2.47;;;1.50;99.90;;;;;;4946461;28;20262;-89
2020/12/11 00:02:36;;;;;;;12.67;6.17;;;1.50;99.90;;;;;;4980181;28;20226;-93
2020/12/11 00:05:05;;;;;;;6.70;6.07;;;1.50;99.90;;;;;;4962659;28;20215;-90
2020/12/11 00:07:38;;;;;;;7.83;7.13;;;1.50;99.90;;;;;;4985346;28;20228;-93
2020/12/11 00:10:08;;;;;;;8.47;5.53;;;1.50;99.90;;;;;;4963516;28;20188;-89
2020/12/11 00:12:35;;;;;;;6.77;6.43;;;1.50;99.90;;;;;;4979891;28;20278;-90
2020/12/11 00:15:01;;;;;;;8.50;5.10;;;1.50;99.90;;;;;;4964041;28;20220;-93
2020/12/11 00:17:28;;;;;;;4.33;3.93;;;1.50;99.90;;;;;;4982706;28;20227;-88
2020/12/11 00:19:54;;;;;;;6.60;4.37;;;1.50;99.90;;;;;;4982045;28;20244;-90
2020/12/11 00:22:20;;;;;;;3.80;3.60;;;1.50;99.90;;;;;;4983826;28;20208;-91
2020/12/11 00:24:47;;;;;;;6.07;3.10;;;1.50;99.90;;;;;;4984262;28;20217;-90
2020/12/11 00:27:12;;;;;;;2.17;1.93;;;1.50;99.90;;;;;;4966435;28;20212;-89
2020/12/11 00:29:38;;;;;;;1.97;1.83;;;1.50;99.90;;;;;;4965840;28;20224;-92
2020/12/11 00:32:04;;;;;;;8.10;4.10;;;1.50;99.90;;;;;;4962176;28;20231;-92
2020/12/11 00:34:31;;;;;;;4.73;3.20;;;1.40;99.90;;;;;;4964350;28;20223;-93
2020/12/11 00:36:57;;;;;;;4.43;3.10;;;1.50;99.90;;;;;;4964178;28;20675;-90
2020/12/11 00:39:23;;;;;;;4.27;2.83;;;1.40;99.90;;;;;;4962241;28;20212;-92
2020/12/11 00:41:49;;;;;;;5.80;4.07;;;1.40;99.90;;;;;;4963907;28;20707;-91
2020/12/11 00:44:15;;;;;;;4.27;3.83;;;1.40;99.90;;;;;;4972839;28;20226;-89
2020/12/11 00:46:40;;;;;;;5.80;5.23;;;1.40;99.90;;;;;;4950134;28;20235;-89
2020/12/11 00:49:06;;;;;;;2.67;2.10;;;1.40;99.90;;;;;;4952225;28;20188;-90
2020/12/11 00:51:32;;;;;;;4.03;3.03;;;1.30;99.90;;;;;;4966012;28;20692;-89
2020/12/11 00:53:58;;;;;;;9.83;5.13;;;1.30;99.90;;;;;;4983038;28;20225;-91
2020/12/11 00:56:24;;;;;;;15.57;8.63;;;1.30;99.90;;;;;;4989300;28;20228;-88
2020/12/11 00:58:52;;;;;;;2.30;1.90;;;1.20;99.90;;;;;;4974055;28;20314;-91
2020/12/11 01:01:18;;;;;;;4.07;3.53;;;1.20;99.90;;;;;;4949781;28;20211;-92
2020/12/11 01:03:44;;;;;;;6.50;3.53;;;1.20;99.90;;;;;;4968052;28;20184;-88
2020/12/11 01:06:10;;;;;;;3.77;3.37;;;1.10;99.90;;;;;;4966183;28;20219;-91
2020/12/11 01:08:36;;;;;;;7.53;6.90;;;1.10;99.90;;;;;;4973606;28;20219;-92
2020/12/11 01:11:02;;;;;;;4.90;4.50;;;1.10;99.90;;;;;;4988595;28;20231;-90
2020/12/11 01:13:28;;;;;;;4.20;3.97;;;1.10;99.90;;;;;;4971806;28;20986;-92
2020/12/11 01:15:54;;;;;;;23.83;10.77;;;1.10;99.90;;;;;;4974114;28;20226;-88
2020/12/11 01:18:20;;;;;;;5.67;5.27;;;1.00;99.90;;;;;;4964963;28;20278;-90
2020/12/11 01:20:46;;;;;;;7.77;5.97;;;1.00;99.90;;;;;;4949745;28;20309;-90
2020/12/11 01:23:12;;;;;;;5.43;4.30;;;1.00;99.90;;;;;;4956030;28;20321;-88
2020/12/11 01:25:38;;;;;;;7.43;6.77;;;1.00;99.90;;;;;;4981601;28;21298;-91
2020/12/11 01:28:04;;;;;;;5.87;5.23;;;1.00;99.90;;;;;;4951208;28;20196;-90
2020/12/11 01:30:33;;;;;;;3.70;3.47;;;1.00;99.90;;;;;;4973458;28;20298;-88
2020/12/11 01:33:02;;;;;;;2.97;2.73;;;1.00;99.90;;;;;;4971638;28;20708;-93
2020/12/11 01:35:27;;;;;;;2.63;2.43;;;1.00;99.90;;;;;;4973575;28;20223;-90
2020/12/11 01:37:53;;;;;;;2.77;2.53;;;1.00;99.90;;;;;;4974081;28;20581;-88
2020/12/11 01:40:19;;;;;;;8.17;6.37;;;1.00;99.90;;;;;;4949827;28;21192;-88
2020/12/11 01:42:44;;;;;;;5.57;4.07;;;1.00;99.90;;;;;;4971287;28;20195;-92
2020/12/11 01:45:10;;;;;;;6.63;5.43;;;1.00;99.90;;;;;;4956414;28;20692;-88
2020/12/11 01:47:40;;;;;;;2.73;2.33;;;1.00;99.90;;;;;;4965553;28;20580;-92
2020/12/11 01:50:18;;;;;;;5.87;4.63;;;1.00;99.90;;;;;;4965236;28;20282;-91
2020/12/11 01:52:48;;;;;;;5.83;3.90;;;1.00;99.90;;;;;;4982428;28;20238;-90
2020/12/11 01:55:14;;;;;;;5.03;4.57;;;1.00;99.90;;;;;;4987164;28;20238;-90
2020/12/11 01:57:56;;;;;;;2.70;2.50;;;1.00;99.90;;;;;;4949969;28;20316;-89
2020/12/11 02:00:23;;;;;;;7.23;3.60;;;1.00;99.90;;;;;;4985372;28;20226;-89
2020/12/11 02:03:01;;;;;;;3.27;2.97;;;1.00;99.90;;;;;;4972342;28;20227;-92
2020/12/11 02:05:26;;;;;;;1.33;1.33;;;1.00;99.90;;;;;;4988680;28;20215;-88
2020/12/11 02:07:52;;;;;;;2.87;2.63;;;1.00;99.90;;;;;;4949002;28;20282;-89
2020/12/11 02:10:18;;;;;;;3.73;3.33;;;1.00;99.90;;;;;;4965413;28;20261;-94
2020/12/11 02:12:44;;;;;;;4.03;3.63;;;0.90;99.90;;;;;;4989644;28;20207;-91
2020/12/11 02:15:10;;;;;;;8.63;5.47;;;0.90;99.90;;;;;;4963586;28;20241;-93
2020/12/11 02:17:36;;;;;;;5.83;1.97;;;0.90;99.90;;;;;;4979819;28;20224;-89
2020/12/11 02:20:03;;;;;;;1.77;1.67;;;0.90;99.90;;;;;;4949202;28;20251;-88
2020/12/11 02:22:28;;;;;;;4.00;3.77;;;0.80;99.90;;;;;;4981090;28;20227;-89
2020/12/11 02:24:54;;;;;;;14.93;6.03;;;0.80;99.90;;;;;;4950038;28;20715;-88
2020/12/11 02:27:20;;;;;;;6.13;5.13;;;0.80;99.90;;;;;;4980559;28;21054;-91
2020/12/11 02:29:46;;;;;;;8.37;4.97;;;0.80;99.90;;;;;;4948675;28;20220;-88
2020/12/11 02:32:14;;;;;;;4.97;3.73;;;0.80;99.90;;;;;;4972495;28;20286;-88
2020/12/11 02:34:41;;;;;;;5.37;4.73;;;0.80;99.90;;;;;;4981376;28;20220;-91
2020/12/11 02:37:08;;;;;;;10.63;4.03;;;0.70;99.90;;;;;;4965498;28;20592;-87
2020/12/11 02:39:34;;;;;;;5.77;3.00;;;0.70;99.90;;;;;;4982914;28;20184;-88
2020/12/11 02:41:59;;;;;;;6.67;6.07;;;0.70;99.90;;;;;;4989611;28;20242;-90
2020/12/11 02:44:25;;;;;;;7.93;7.13;;;0.60;99.90;;;;;;4948427;28;20224;-89
2020/12/11 02:46:51;;;;;;;5.20;4.07;;;0.60;99.90;;;;;;4987886;28;20703;-94
2020/12/11 02:49:17;;;;;;;5.83;2.07;;;0.50;99.90;;;;;;4955402;28;21263;-90
2020/12/11 02:51:42;;;;;;;9.60;5.47;;;0.60;99.90;;;;;;4950158;28;20743;-88
2020/12/11 02:54:08;;;;;;;9.40;8.17;;;0.60;99.90;;;;;;4949459;28;20798;-88
2020/12/11 02:56:34;;;;;;;3.40;3.17;;;0.50;99.90;;;;;;4951483;28;20258;-88
2020/12/11 02:58:59;;;;;;;3.63;3.33;;;0.50;99.90;;;;;;4975904;28;20956;-88
2020/12/11 03:01:26;;;;;;;2.00;1.90;;;0.50;99.90;;;;;;4976920;28;21268;-89
2020/12/11 03:03:54;;;;;;;3.13;2.73;;;0.50;99.90;;;;;;4985801;28;20238;-94
2020/12/11 03:06:27;;;;;;;12.53;5.20;;;0.50;99.90;;;;;;4992247;28;20286;-88
2020/12/11 03:08:53;;;;;;;5.77;5.13;;;0.60;99.90;;;;;;4953433;28;20267;-88
2020/12/11 03:11:19;;;;;;;5.27;3.80;;;0.60;99.90;;;;;;4983932;28;20238;-89
2020/12/11 03:13:46;;;;;;;3.23;2.33;;;0.50;99.90;;;;;;4984599;28;20220;-88
2020/12/11 03:16:11;;;;;;;3.67;3.37;;;0.50;99.90;;;;;;4950098;28;20198;-88
2020/12/11 03:18:37;;;;;;;2.40;2.30;;;0.50;99.90;;;;;;4968816;28;20192;-88
2020/12/11 03:21:03;;;;;;;5.53;4.27;;;0.50;99.90;;;;;;4972678;28;20231;-88
2020/12/11 03:23:29;;;;;;;2.57;2.43;;;0.50;99.90;;;;;;4984894;28;20219;-88
2020/12/11 03:25:55;;;;;;;4.87;2.90;;;0.50;99.90;;;;;;4983145;28;20224;-90
2020/12/11 03:28:21;;;;;;;1.93;1.83;;;0.40;99.90;;;;;;4935892;28;20226;-88
2020/12/11 03:30:47;;;;;;;7.47;6.27;;;0.40;99.90;;;;;;4976474;28;21196;-90
2020/12/11 03:33:13;;;;;;;7.10;6.60;;;0.40;99.90;;;;;;4951769;28;20318;-91
2020/12/11 03:35:39;;;;;;;4.60;3.60;;;0.40;99.90;;;;;;4952268;28;20226;-90
2020/12/11 03:38:04;;;;;;;3.63;3.43;;;0.50;99.90;;;;;;4951422;28;21132;-91
2020/12/11 03:40:30;;;;;;;4.43;3.70;;;0.50;99.90;;;;;;4956476;28;20223;-88
2020/12/11 03:42:56;;;;;;;5.07;4.07;;;0.50;99.90;;;;;;4975007;28;20976;-88
2020/12/11 03:45:22;;;;;;;3.03;2.80;;;0.50;99.90;;;;;;4966782;28;20231;-88
2020/12/11 03:47:48;;;;;;;4.43;2.43;;;0.50;99.90;;;;;;4966889;28;20226;-90
2020/12/11 03:50:14;;;;;;;2.20;2.00;;;0.50;99.90;;;;;;4967719;28;20303;-91
2020/12/11 03:52:39;;;;;;;12.67;5.37;;;0.40;99.90;;;;;;4951534;28;20716;-89
2020/12/11 03:55:05;;;;;;;6.37;3.97;;;0.40;99.90;;;;;;4976712;28;21044;-89
2020/12/11 03:57:32;;;;;;;4.83;4.47;;;0.40;99.90;;;;;;4983235;28;20686;-89
2020/12/11 03:59:58;;;;;;;15.23;8.00;;;0.40;99.90;;;;;;4984480;28;20861;-92
2020/12/11 04:02:24;;;;;;;3.97;3.27;;;0.40;99.90;;;;;;4967037;28;20562;-89
2020/12/11 04:04:49;;;;;;;2.23;2.13;;;0.40;99.90;;;;;;4988546;28;20696;-88
2020/12/11 04:07:15;;;;;;;2.67;1.60;;;0.40;99.90;;;;;;4950448;28;20283;-88
2020/12/11 04:09:43;;;;;;;8.03;5.67;;;0.40;99.90;;;;;;4958204;28;20222;-89
2020/12/11 04:12:15;;;;;;;2.40;1.80;;;0.30;99.90;;;;;;4967350;28;20236;-88
2020/12/11 04:14:40;;;;;;;3.37;3.13;;;0.30;99.90;;;;;;4972851;28;20247;-88
2020/12/11 04:17:06;;;;;;;7.20;5.40;;;0.30;99.90;;;;;;4948806;28;20299;-89
2020/12/11 04:19:32;;;;;;;2.47;2.37;;;0.30;99.90;;;;;;4973184;28;20338;-88
2020/12/11 04:21:59;;;;;;;2.07;1.50;;;0.30;99.90;;;;;;4951987;28;20203;-88
2020/12/11 04:24:24;;;;;;;4.80;2.20;;;0.30;99.90;;;;;;4982642;28;20219;-90
2020/12/11 04:26:50;;;;;;;3.80;2.57;;;0.30;99.90;;;;;;4991328;28;20216;-89
2020/12/11 04:29:16;;;;;;;5.50;2.10;;;0.30;99.90;;;;;;4974128;28;20294;-89
2020/12/11 04:31:42;;;;;;;2.70;2.50;;;0.30;99.90;;;;;;4966273;28;20252;-92
2020/12/11 04:34:07;;;;;;;8.93;5.83;;;0.30;99.90;;;;;;4974354;28;20203;-87
2020/12/11 04:36:34;;;;;;;7.57;5.40;;;0.30;99.90;;;;;;4967175;28;20226;-89
2020/12/11 04:39:00;;;;;;;3.20;2.83;;;0.40;99.90;;;;;;4965597;28;20224;-91
2020/12/11 04:41:30;;;;;;;1.07;1.07;;;0.30;99.90;;;;;;4965577;28;20272;-89
2020/12/11 04:43:57;;;;;;;3.93;2.47;;;0.40;99.90;;;;;;4965705;28;20220;-88
2020/12/11 04:46:29;;;;;;;3.23;2.27;;;0.40;99.90;;;;;;4981586;28;20524;-90
2020/12/11 04:48:55;;;;;;;6.97;5.63;;;0.30;99.90;;;;;;4966821;28;20724;-87
2020/12/11 04:51:23;;;;;;;6.27;5.07;;;0.40;99.90;;;;;;4965041;28;20317;-87
2020/12/11 04:53:52;;;;;;;5.90;5.13;;;0.40;99.90;;;;;;4965965;28;20224;-88
2020/12/11 04:56:21;;;;;;;2.87;2.37;;;0.40;99.90;;;;;;4965501;28;20693;-90
2020/12/11 04:58:50;;;;;;;2.97;2.20;;;0.30;99.90;;;;;;4961949;28;20354;-89
2020/12/11 05:01:32;;;;;;;2.13;2.00;;;0.30;99.90;;;;;;4960089;28;20196;-95
2020/12/11 05:04:00;;;;;;;3.73;2.73;;;0.40;99.90;;;;;;4962084;28;20259;-92
2020/12/11 05:06:27;;;;;;;1.90;1.80;;;0.40;99.90;;;;;;4961141;28;20242;-92
2020/12/11 05:09:16;;;;;;;1.53;1.53;;;0.40;99.90;;;;;;4963497;28;20295;-88
2020/12/11 05:11:44;;;;;;;1.43;1.43;;;0.40;99.90;;;;;;4977594;28;20675;-89
2020/12/11 05:14:33;;;;;;;6.30;2.30;;;0.40;99.90;;;;;;4985266;28;20219;-88
2020/12/11 05:17:04;;;;;;;3.47;3.00;;;0.40;99.90;;;;;;4975668;28;20231;-90
2020/12/11 05:19:32;;;;;;;1.30;1.30;;;0.40;99.90;;;;;;4963657;28;20227;-91
2020/12/11 05:22:08;;;;;;;4.07;3.77;;;0.40;99.90;;;;;;4962306;28;20196;-89
2020/12/11 05:24:46;;;;;;;4.27;2.93;;;0.40;99.90;;;;;;4975416;28;20242;-88
2020/12/11 05:27:32;;;;;;;5.23;4.53;;;0.40;99.90;;;;;;4980439;28;20219;-90
2020/12/11 05:29:59;;;;;;;4.73;4.33;;;0.40;99.90;;;;;;4977770;28;20916;-89
2020/12/11 05:32:38;;;;;;;9.87;5.27;;;0.40;99.90;;;;;;4981825;28;20274;-91
2020/12/11 05:35:06;;;;;;;5.03;4.63;;;0.50;99.90;;;;;;4964358;28;20216;-91
2020/12/11 05:37:54;;;;;;;9.43;3.00;;;0.50;99.90;;;;;;4964820;28;21492;-88
2020/12/11 05:40:22;;;;;;;4.73;3.80;;;0.50;99.90;;;;;;4963964;28;20187;-93
2020/12/11 05:43:08;;;;;;;4.03;3.73;;;0.50;99.90;;;;;;4982979;28;20270;-89
2020/12/11 05:45:36;;;;;;;1.33;1.23;;;0.60;99.90;;;;;;4963162;28;20310;-89
2020/12/11 05:48:03;;;;;;;1.90;1.80;;;0.60;99.90;;;;;;4964542;28;20308;-91
2020/12/11 05:50:29;;;;;;;8.13;3.30;;;0.60;99.90;;;;;;4948606;28;20215;-87
2020/12/11 05:52:55;;;;;;;3.63;3.43;;;0.60;99.90;;;;;;4948850;28;20232;-87
2020/12/11 05:55:22;;;;;;;4.13;1.80;;;0.60;99.90;;;;;;4980850;28;20184;-93
2020/12/11 05:57:57;;;;;;;4.27;2.43;;;0.50;99.90;;;;;;4958333;28;20328;-88
2020/12/11 06:00:23;;;;;;;5.40;5.10;;;0.60;99.90;;;;;;4980275;28;20226;-89
2020/12/11 06:02:51;;;;;;;13.23;6.90;;;0.50;99.90;;;;;;4963825;28;20220;-88
2020/12/11 06:05:19;;;;;;;7.73;5.23;;;0.60;99.90;;;;;;4980806;28;20216;-88
2020/12/11 06:07:47;;;;;;;5.80;3.97;;;0.50;99.90;;;;;;4963542;28;20896;-90
2020/12/11 06:10:15;;;;;;;2.37;2.17;;;0.50;99.90;;;;;;4964917;28;20735;-88
2020/12/11 06:12:41;;;;;;;2.77;1.97;;;0.60;99.90;;;;;;4990405;28;20707;-89
2020/12/11 06:15:21;;;;;;;2.47;2.33;;;0.60;99.90;;;;;;4964708;28;20282;-88
2020/12/11 06:17:53;;;;;;;4.03;3.67;;;0.60;99.90;;;;;;4980312;28;20250;-89
2020/12/11 06:20:20;;;;;;;2.27;2.13;;;0.60;99.90;;;;;;4980690;28;20228;-88
2020/12/11 06:22:46;;;;;;;2.40;2.20;;;0.60;99.90;;;;;;4981734;28;20349;-89
2020/12/11 06:25:29;;;;;;;3.10;2.90;;;0.70;99.90;;;;;;4964381;28;20578;-89
2020/12/11 06:27:57;;;;;;;4.00;2.63;;;0.70;99.90;;;;;;4950991;28;21220;-92
2020/12/11 06:30:23;;;;;;;3.17;2.70;;;0.70;99.90;;;;;;4988914;28;20226;-89
2020/12/11 06:32:49;;;;;;;6.53;4.53;;;0.70;99.90;;;;;;4967934;28;20742;-90
2020/12/11 06:35:15;;;;;;;4.10;3.80;;;0.70;99.90;;;;;;4973160;28;20307;-90
2020/12/11 06:37:41;;;;;;;5.83;3.63;;;0.70;99.90;;;;;;4965471;28;20215;-89
2020/12/11 06:40:08;;;;;;;2.20;2.10;;;0.70;99.90;;;;;;4966881;28;20257;-92
2020/12/11 06:42:37;;;;;;;2.10;1.97;;;0.70;99.90;;;;;;4984898;28;20212;-90
2020/12/11 06:45:24;;;;;;;4.57;3.93;;;0.80;99.90;;;;;;4968404;28;20678;-88
2020/12/11 06:47:54;;;;;;;6.30;4.00;;;0.80;99.90;;;;;;4970298;28;20226;-91
2020/12/11 06:50:28;;;;;;;3.17;2.87;;;0.80;99.90;;;;;;4985534;28;20301;-89
2020/12/11 06:52:55;;;;;;;2.43;2.23;;;0.80;99.90;;;;;;4991398;28;20311;-93
2020/12/11 06:55:21;;;;;;;5.73;5.27;;;0.80;99.90;;;;;;4983269;28;21464;-89
2020/12/11 06:57:48;;;;;;;7.20;2.83;;;0.80;99.90;;;;;;4959170;28;20196;-90
2020/12/11 07:00:30;;;;;;;9.33;5.23;;;0.80;99.90;;;;;;4974343;28;20231;-89
2020/12/11 07:03:34;;;;;;;3.33;2.57;;;0.70;99.90;;;;;;4967468;28;20239;-89
2020/12/11 07:06:06;;;;;;;3.63;3.43;;;0.80;99.90;;;;;;4918338;29;20229;-87
2020/12/11 07:08:32;;;;;;;3.50;3.20;;;0.80;99.90;;;;;;4927251;28;21071;-89
2020/12/11 07:11:06;;;;;;;4.20;3.80;;;0.80;99.90;;;;;;4928042;28;21086;-91
2020/12/11 07:13:32;;;;;;;3.93;3.33;;;0.80;99.90;;;;;;4966910;28;20231;-88
2020/12/11 07:16:00;;;;;;;6.83;2.67;;;0.80;99.90;;;;;;4967197;28;20294;-88
2020/12/11 07:18:26;;;;;;;8.50;6.97;;;0.90;99.90;;;;;;4967523;28;20315;-89
2020/12/11 07:20:56;;;;;;;11.75;7.28;;;0.90;99.90;;;;;;4967723;28;20511;-91
2020/12/11 07:23:23;;;;;;;4.30;3.90;;;0.80;99.90;;;;;;4967679;28;20234;-89
2020/12/11 07:25:50;;;;;;;3.97;3.60;;;0.80;99.90;;;;;;4968272;28;20231;-91
2020/12/11 07:28:16;;;;;;;5.93;4.80;;;0.80;99.90;;;;;;4967593;28;20199;-91
2020/12/11 07:30:43;;;;;;;8.67;7.27;;;0.80;99.90;;;;;;4969687;28;20219;-85
2020/12/11 07:33:10;;;;;;;5.90;4.47;;;0.80;99.90;;;;;;4951796;28;20236;-93
2020/12/11 07:35:42;;;;;;;2.40;2.30;;;0.80;99.90;;;;;;4958200;28;20228;-91
2020/12/11 07:38:11;;;;;;;4.30;2.57;;;0.80;99.90;;;;;;4983479;28;20772;-89
2020/12/11 07:40:36;;;;;;;5.87;5.37;;;0.80;99.90;;;;;;4967105;28;20238;-90
2020/12/11 07:43:03;;;;;;;6.10;2.83;;;0.80;99.90;;;;;;4968880;28;20189;-90
2020/12/11 07:45:33;;;;;;;7.13;6.27;;;0.90;99.90;;;;;;4967284;28;20219;-90
2020/12/11 07:47:59;;;;;;;7.57;5.47;;;0.80;99.90;;;;;;4984161;28;20258;-90
2020/12/11 07:50:27;;;;;;;5.13;4.83;;;0.80;99.90;;;;;;4950742;28;20339;-84
2020/12/11 07:52:57;;;;;;;8.83;3.67;;;0.80;99.90;;;;;;4982927;28;20235;-90
2020/12/11 07:55:26;;;;;;;4.07;3.70;;;0.70;99.90;;;;;;4951459;28;20196;-89
2020/12/11 07:57:57;;;;;;;6.03;3.17;;;0.70;99.90;;;;;;4983808;28;20220;-91
2020/12/11 08:00:23;;;;;;;5.10;4.63;;;0.70;99.90;;;;;;4966998;28;20223;-89
2020/12/11 08:03:05;;;;;;;11.18;7.95;;;0.70;99.90;;;;;;4973327;28;20462;-89
2020/12/11 08:05:31;;;;;;;6.77;5.93;;;0.70;99.90;;;;;;4950570;28;20798;-88
2020/12/11 08:07:57;;;;;;;3.10;2.87;;;0.70;99.90;;;;;;4983371;28;20216;-88
2020/12/11 08:10:32;;;;;;;6.13;3.83;;;0.70;99.90;;;;;;4957769;28;20199;-89
2020/12/11 08:13:11;;;;;;;3.87;3.30;;;0.70;99.90;;;;;;4985257;28;20207;-89
2020/12/11 08:15:37;;;;;;;6.30;3.33;;;0.70;99.90;;;;;;4973045;28;20219;-88
2020/12/11 08:18:12;;;;;;;5.17;2.30;;;0.70;99.90;;;;;;4993072;28;20715;-87
2020/12/11 08:20:43;;;;;;;3.00;1.70;;;0.80;99.90;;;;;;4982335;28;20223;-88
2020/12/11 08:23:19;;;;;;;3.93;3.63;;;0.80;99.90;;;;;;4973602;28;20227;-88
2020/12/11 08:25:45;;;;;;;7.73;5.63;;;0.80;99.90;;;;;;4983208;28;20219;-87
2020/12/11 08:28:10;;;;;;;3.70;2.23;;;0.80;99.90;;;;;;4966438;28;20195;-89
2020/12/11 08:30:36;;;;;;;3.23;2.97;;;0.90;99.90;;;;;;4974452;28;20192;-88
2020/12/11 08:33:10;;;;;;;5.67;4.10;;;0.90;99.90;;;;;;4971435;28;20336;-90
2020/12/11 08:35:36;;;;;;;3.23;2.43;;;0.90;99.90;;;;;;4963162;28;20218;-87
2020/12/11 08:38:05;;;;;;;5.10;4.60;;;0.90;99.90;;;;;;4963853;28;20227;-89
2020/12/11 08:40:32;;;;;;;3.63;3.33;;;0.90;99.90;;;;;;4963330;28;20285;-87
2020/12/11 08:43:03;;;;;;;2.83;2.63;;;0.90;99.90;;;;;;4950382;28;20188;-88
2020/12/11 08:45:43;;;;;;;19.17;5.03;;;1.00;99.90;;;;;;4964215;28;20752;-89
2020/12/11 08:48:20;;;;;;;7.87;3.90;;;1.00;99.90;;;;;;4970273;28;20223;-88
2020/12/11 08:50:49;;;;;;;3.20;1.97;;;1.00;99.90;;;;;;4972245;28;20223;-87
2020/12/11 08:53:16;;;;;;;5.23;2.97;;;1.00;99.90;;;;;;4947342;28;21242;-88
2020/12/11 08:55:42;;;;;;;3.97;3.67;;;1.00;99.90;;;;;;4982628;28;20610;-88
2020/12/11 08:58:09;;;;;;;4.10;3.67;;;1.00;99.90;;;;;;4948829;28;20232;-88
2020/12/11 09:00:36;;;;;;;4.50;3.57;;;1.00;99.90;;;;;;4986553;28;20188;-91
2020/12/11 09:03:03;;;;;;;11.93;6.70;;;1.00;99.90;;;;;;4952848;28;20220;-90
2020/12/11 09:05:29;;;;;;;3.50;2.47;;;1.10;99.90;;;;;;4925303;28;20313;-91
2020/12/11 09:07:57;;;;;;;2.77;2.57;;;1.20;99.90;;;;;;4960503;28;20239;-91
2020/12/11 09:10:23;;;;;;;3.40;2.13;;;1.20;99.90;;;;;;4966299;28;20189;-89
2020/12/11 09:12:53;;;;;;;5.33;4.83;;;1.20;99.90;;;;;;4961561;28;20641;-90
2020/12/11 09:15:21;;;;;;;5.67;2.53;;;1.20;99.90;;;;;;4974774;28;20228;-91
2020/12/11 09:17:47;;;;;;;2.40;2.20;;;1.20;99.90;;;;;;4974436;28;20229;-90
2020/12/11 09:20:14;;;;;;;6.30;4.83;;;1.20;99.90;;;;;;4959863;28;20741;-91
2020/12/11 09:22:40;;;;;;;2.43;2.23;;;1.20;99.90;;;;;;4973908;28;20221;-90
2020/12/11 09:25:06;;;;;;;3.43;2.77;;;1.30;99.90;;;;;;4960794;28;20200;-91
2020/12/11 09:27:35;;;;;;;2.80;2.60;;;1.30;99.90;;;;;;4958984;28;20632;-90
2020/12/11 09:30:14;;;;;;;4.37;3.93;;;1.40;99.90;;;;;;4961924;28;20224;-91
2020/12/11 09:35:27;;;;;;;1.90;1.80;;;1.40;99.90;;;;;;4963529;28;20223;-90
2020/12/11 09:37:53;;;;;;;3.13;2.87;;;1.40;99.90;;;;;;4926337;28;20645;-90
2020/12/11 09:40:25;;;;;;;3.57;3.23;;;1.50;99.90;;;;;;4959266;28;20292;-90
2020/12/11 09:45:31;;;;;;;2.00;1.80;;;1.60;99.90;;;;;;4947050;28;20234;-86
2020/12/11 09:50:43;;;;;;;3.73;3.33;;;1.70;99.90;;;;;;4959290;28;20307;-88
2020/12/11 09:55:44;;;;;;;2.40;2.23;;;1.80;99.90;;;;;;4954177;28;20270;-89
2020/12/11 09:58:10;;;;;;;3.03;2.83;;;1.80;99.90;;;;;;4963629;28;20271;-87
2020/12/11 10:00:39;;;;;;;3.43;2.90;;;1.90;99.90;;;;;;4955733;28;20279;-88
2020/12/11 10:03:08;;;;;;;3.17;2.77;;;1.90;99.90;;;;;;4962953;28;20281;-87
2020/12/11 10:05:33;;;;;;;3.03;2.13;;;1.90;99.90;;;;;;4994586;28;20228;-87
2020/12/11 10:07:59;;;;;;;7.40;4.57;;;2.00;99.90;;;;;;4976390;28;20576;-88
2020/12/11 10:10:26;;;;;;;1.00;1.00;;;2.00;99.90;;;;;;4992778;28;20331;-86
2020/12/11 10:12:52;;;;;;;3.97;3.67;;;2.10;99.90;;;;;;4965739;28;20220;-88
2020/12/11 10:15:22;;;;;;;2.77;1.67;;;2.10;99.90;;;;;;4946746;28;20223;-88
2020/12/11 10:17:49;;;;;;;5.37;4.80;;;2.20;99.90;;;;;;4968993;28;20224;-87
2020/12/11 10:20:19;;;;;;;2.17;1.97;;;2.20;99.90;;;;;;4943758;28;20239;-88
2020/12/11 10:22:48;;;;;;;6.43;3.10;;;2.20;99.90;;;;;;4966441;28;20303;-88
2020/12/11 10:25:14;;;;;;;2.90;2.60;;;2.20;99.90;;;;;;4961678;28;20188;-88
2020/12/11 10:27:40;;;;;;;8.93;4.60;;;2.30;99.90;;;;;;4938675;28;20195;-89
2020/12/11 10:30:06;;;;;;;3.13;2.77;;;2.30;99.90;;;;;;4928468;28;21024;-87
2020/12/11 10:32:32;;;;;;;2.93;2.20;;;2.40;99.90;;;;;;4952895;28;20232;-89
2020/12/11 10:34:57;;;;;;;5.40;3.97;;;2.40;99.90;;;;;;4964052;28;20568;-89
2020/12/11 10:37:23;;;;;;;7.07;6.37;;;2.40;99.90;;;;;;4963022;28;20201;-88
2020/12/11 10:39:50;;;;;;;6.50;6.00;;;2.40;99.90;;;;;;4966155;28;21032;-88
2020/12/11 10:42:16;;;;;;;4.37;3.70;;;2.40;99.90;;;;;;4977157;28;20702;-88
2020/12/11 10:44:42;;;;;;;2.53;2.30;;;2.50;99.90;;;;;;4982371;28;20227;-87
2020/12/11 10:47:08;;;;;;;2.63;2.30;;;2.50;99.90;;;;;;4975416;28;20710;-87
2020/12/11 10:49:34;;;;;;;5.27;3.63;;;2.50;99.90;;;;;;4946675;28;20287;-87
2020/12/11 10:52:00;;;;;;;1.53;1.43;;;2.50;99.90;;;;;;4946892;28;20228;-87
2020/12/11 10:54:29;;;;;;;7.13;4.80;;;2.60;99.90;;;;;;4980012;28;20223;-87
2020/12/11 10:56:55;;;;;;;4.43;3.60;;;2.60;99.90;;;;;;4966821;28;20254;-87
2020/12/11 10:59:21;;;;;;;1.63;1.57;;;2.70;99.90;;;;;;4973432;28;20307;-87
2020/12/11 11:01:49;;;;;;;1.87;1.77;;;2.70;99.90;;;;;;4951122;28;20906;-88
2020/12/11 11:04:15;;;;;;;3.17;1.97;;;2.70;99.90;;;;;;4949960;28;20219;-88
2020/12/11 11:06:51;;;;;;;3.90;2.90;;;2.70;99.90;;;;;;4975154;28;20188;-89
2020/12/11 11:09:27;;;;;;;5.13;4.47;;;2.70;99.90;;;;;;4968100;28;20266;-88
2020/12/11 11:12:14;;;;;;;9.00;6.17;;;2.80;99.90;;;;;;4973835;28;20669;-87
2020/12/11 11:18:00;;;;;;;3.83;3.53;;;2.80;99.90;;;;;;4930209;28;20343;-88
2020/12/11 11:23:00;;;;;;;2.80;2.37;;;2.90;99.90;;;;;;4963132;28;20246;-88
2020/12/11 11:28:02;;;;;;;5.50;4.23;;;2.90;99.90;;;;;;4949875;28;20702;-88
2020/12/11 11:30:29;;;;;;;2.83;2.63;;;3.00;99.90;;;;;;4962508;28;20723;-89
2020/12/11 11:32:55;;;;;;;2.60;2.40;;;3.00;99.90;;;;;;4955709;28;20239;-88
2020/12/11 11:35:22;;;;;;;5.17;2.70;;;3.00;99.90;;;;;;4971051;28;20300;-88
2020/12/11 11:37:48;;;;;;;1.47;1.47;;;3.10;99.90;;;;;;4950670;28;20224;-88
2020/12/11 11:40:14;;;;;;;3.40;2.73;;;3.10;99.90;;;;;;4949245;28;20246;-88
2020/12/11 11:42:40;;;;;;;7.27;4.77;;;3.20;99.90;;;;;;4990374;28;20569;-87
2020/12/11 11:45:07;;;;;;;3.93;3.70;;;3.20;99.90;;;;;;4972811;28;20255;-88
2020/12/11 11:47:37;;;;;;;5.13;4.70;;;3.20;99.90;;;;;;4967330;28;20309;-88
2020/12/11 11:52:48;;;;;;;8.57;5.27;;;3.30;99.90;;;;;;4989185;28;20331;-89
2020/12/11 11:55:14;;;;;;;3.70;1.87;;;3.30;99.90;;;;;;4983480;28;20554;-89
2020/12/11 11:57:41;;;;;;;6.27;4.07;;;3.40;99.90;;;;;;4951164;28;20188;-88
2020/12/11 12:00:09;;;;;;;4.47;4.07;;;3.50;99.90;;;;;;4971776;28;20250;-89
2020/12/11 12:02:35;;;;;;;5.90;5.50;;;3.50;99.90;;;;;;4954268;28;20610;-89
2020/12/11 12:05:01;;;;;;;5.27;4.03;;;3.40;99.90;;;;;;4970826;28;20685;-89
2020/12/11 12:07:28;;;;;;;6.70;4.00;;;3.40;99.90;;;;;;4973346;28;20184;-90
2020/12/11 12:09:55;;;;;;;2.40;2.30;;;3.40;99.90;;;;;;4972850;28;20295;-87
2020/12/11 12:12:21;;;;;;;3.77;3.27;;;3.40;99.90;;;;;;4971358;28;20240;-90
2020/12/11 12:14:48;;;;;;;5.00;2.70;;;3.40;99.90;;;;;;4971692;28;21104;-87
2020/12/11 12:17:16;;;;;;;12.20;7.20;;;3.40;99.90;;;;;;4987336;28;20663;-90
2020/12/11 12:19:45;;;;;;;4.17;3.07;;;3.40;99.90;;;;;;4985627;28;20326;-88
2020/12/11 12:29:54;;;;;;;3.57;3.30;;;3.40;99.90;;;;;;4971189;28;20220;-87
2020/12/11 12:32:23;;;;;;;3.70;2.80;;;3.40;99.90;;;;;;4971032;28;20236;-87
2020/12/11 12:35:00;;;;;;;2.40;2.07;;;3.40;99.90;;;;;;4986662;28;20739;-87
2020/12/11 12:45:13;;;;;;;5.53;3.87;;;3.50;99.90;;;;;;4965978;28;20216;-88
2020/12/11 12:47:40;;;;;;;4.53;3.30;;;3.50;99.90;;;;;;4983648;28;20612;-87
2020/12/11 12:50:08;;;;;;;3.10;2.63;;;3.50;99.90;;;;;;4969661;28;20235;-88
2020/12/11 12:52:34;;;;;;;5.60;3.70;;;3.50;99.90;;;;;;4970945;28;20351;-88
2020/12/11 12:55:00;;;;;;;3.07;2.83;;;3.50;99.90;;;;;;4955486;28;20195;-86
2020/12/11 13:00:15;;;;;;;3.73;3.10;;;3.60;99.90;;;;;;4973579;28;20319;-87
2020/12/11 13:05:25;;;;;;;2.33;1.50;;;3.50;99.90;;;;;;4972403;28;20224;-87
2020/12/11 13:07:51;;;;;;;4.17;3.20;;;3.50;99.90;;;;;;4955033;28;20583;-88
2020/12/11 13:10:17;;;;;;;2.50;2.30;;;3.40;99.90;;;;;;4969411;28;20653;-88
2020/12/11 13:12:44;;;;;;;2.83;2.63;;;3.50;99.90;;;;;;4986033;28;20949;-86
2020/12/11 13:15:10;;;;;;;4.10;2.90;;;3.50;99.90;;;;;;4955426;28;20223;-87
2020/12/11 13:17:36;;;;;;;5.57;3.47;;;3.60;99.90;;;;;;4957227;28;20212;-87
2020/12/11 13:20:04;;;;;;;1.53;1.43;;;3.60;99.90;;;;;;4959561;28;20257;-88
2020/12/11 13:22:54;;;;;;;2.00;1.57;;;3.70;99.90;;;;;;4962144;28;20570;-87
2020/12/11 13:25:28;;;;;;;5.53;3.33;;;3.70;99.90;;;;;;4969340;28;20204;-87
2020/12/11 13:27:54;;;;;;;2.63;2.43;;;3.70;99.90;;;;;;4955409;28;20241;-86
2020/12/11 13:30:19;;;;;;;4.50;4.00;;;3.70;99.90;;;;;;4971565;28;20220;-87
2020/12/11 13:32:46;;;;;;;3.93;3.73;;;3.60;99.90;;;;;;4952518;28;20259;-86
2020/12/11 13:35:12;;;;;;;4.43;3.90;;;3.70;99.90;;;;;;4971062;28;20217;-87
2020/12/11 13:37:38;;;;;;;4.47;3.67;;;3.50;99.90;;;;;;4950647;28;20267;-89
2020/12/11 13:40:04;;;;;;;4.80;2.10;;;3.50;99.90;;;;;;4947607;28;20287;-88
2020/12/11 13:42:30;;;;;;;3.07;2.83;;;3.50;99.90;;;;;;4953379;28;20589;-88
2020/12/11 13:44:57;;;;;;;3.20;2.47;;;3.50;99.90;;;;;;4967123;28;20389;-87